createdAt,value
2023-03-13T00:02:44.447Z,94.6
2023-03-13T00:05:11.117Z,94.1
2023-03-13T00:07:37.813Z,96.3
2023-03-13T00:10:04.484Z,96.9
2023-03-13T00:12:31.179Z,93.8
2023-03-13T00:14:57.863Z,92.9
2023-03-13T00:17:24.546Z,91.6
2023-03-13T00:19:51.238Z,91.4
2023-03-13T00:22:17.928Z,88.9
2023-03-13T00:24:43.165Z,87.9
2023-03-13T00:27:09.838Z,85.7
2023-03-13T00:29:36.646Z,89.8
2023-03-13T00:32:03.271Z,90.5
2023-03-13T00:34:29.886Z,89
2023-03-13T00:36:56.628Z,89.3
2023-03-13T00:39:23.276Z,88.7
2023-03-13T00:41:50.043Z,85.4
2023-03-13T00:44:16.634Z,85.1
2023-03-13T00:49:10.001Z,82
2023-03-13T00:51:36.690Z,81.9
2023-03-13T00:54:03.368Z,81.7
2023-03-13T00:56:30.051Z,82.4
2023-03-13T00:58:55.305Z,81.7
2023-03-13T01:03:48.647Z,80.6
2023-03-13T01:06:15.337Z,80.9
2023-03-13T01:08:42.021Z,82.3
2023-03-13T01:11:08.720Z,81.8
2023-03-13T01:13:35.409Z,79.7
2023-03-13T01:16:02.073Z,81
2023-03-13T01:18:28.761Z,82.6
2023-03-13T01:20:55.459Z,84.9
2023-03-13T01:23:22.127Z,83.1
2023-03-13T01:25:48.822Z,86
2023-03-13T01:28:15.501Z,86.5
2023-03-13T01:30:40.718Z,87.1
2023-03-13T01:33:07.406Z,88
2023-03-13T01:35:34.094Z,87.5
2023-03-13T01:38:00.786Z,87.4
2023-03-13T01:40:27.466Z,87.8
2023-03-13T01:42:54.152Z,87.6
2023-03-13T01:45:20.835Z,87.8
2023-03-13T01:50:14.208Z,87.8
2023-03-13T01:52:40.883Z,87.4
2023-03-13T01:55:07.586Z,87.7
2023-03-13T01:57:34.274Z,87.4
2023-03-13T02:00:00.933Z,86.7
2023-03-13T02:02:26.194Z,85.8
2023-03-13T02:04:52.859Z,85.2
2023-03-13T02:07:19.540Z,84
2023-03-13T02:09:46.218Z,83.3
2023-03-13T02:12:12.968Z,82.9
2023-03-13T02:14:39.595Z,82.9
2023-03-13T02:17:06.273Z,82.7
2023-03-13T02:19:32.970Z,82.5
2023-03-13T02:21:59.644Z,81.4
2023-03-13T02:24:26.320Z,81.6
2023-03-13T02:26:53.004Z,82.7
2023-03-13T02:29:19.754Z,83.3
2023-03-13T02:31:46.385Z,83.3
2023-03-13T02:34:13.073Z,82.7
2023-03-13T02:36:39.750Z,81.7
2023-03-13T02:39:06.443Z,79.2
2023-03-13T02:41:31.660Z,79.5
2023-03-13T02:43:58.346Z,80.8
2023-03-13T02:46:25.037Z,80
2023-03-13T02:48:51.706Z,79.4
2023-03-13T02:51:18.395Z,80
2023-03-13T02:53:45.092Z,81
2023-03-13T02:56:11.771Z,81.3
2023-03-13T02:58:38.548Z,81.7
2023-03-13T03:01:05.128Z,82
2023-03-13T03:03:31.828Z,82.1
2023-03-13T03:05:58.525Z,82.3
2023-03-13T03:08:25.188Z,82.6
2023-03-13T03:10:51.880Z,84
2023-03-13T03:13:18.575Z,84.8
2023-03-13T03:15:43.787Z,85.2
2023-03-13T03:18:10.483Z,84.2
2023-03-13T03:20:37.157Z,84.8
2023-03-13T03:23:03.834Z,86.9
2023-03-13T03:25:30.524Z,87
2023-03-13T03:27:57.206Z,88.3
2023-03-13T03:30:23.893Z,88.5
2023-03-13T03:32:50.575Z,88.5
2023-03-13T03:35:17.268Z,91.4
2023-03-13T03:37:43.936Z,91.9
2023-03-13T03:40:10.629Z,91.2
2023-03-13T03:42:37.315Z,89.5
2023-03-13T03:45:03.997Z,87.2
2023-03-13T03:47:29.218Z,85.1
2023-03-13T03:52:22.576Z,80.2
2023-03-13T03:54:49.272Z,77.6
2023-03-13T03:57:15.961Z,76.5
2023-03-13T03:59:42.656Z,78.3
2023-03-13T04:02:09.353Z,78
2023-03-13T04:04:36.008Z,78.1
2023-03-13T04:07:02.703Z,76.3
2023-03-13T04:09:29.413Z,75.5
2023-03-13T04:11:56.077Z,75.9
2023-03-13T04:14:22.780Z,76
2023-03-13T04:16:49.459Z,76.5
2023-03-13T04:19:14.680Z,76.5
2023-03-13T04:21:41.352Z,75.5
2023-03-13T04:24:08.044Z,75.3
2023-03-13T04:26:34.724Z,75.5
2023-03-13T04:29:01.404Z,75.1
2023-03-13T04:33:54.769Z,75.6
2023-03-13T04:36:21.466Z,74.7
2023-03-13T04:38:48.138Z,74.6
2023-03-13T04:41:14.836Z,74.8
2023-03-13T04:46:08.205Z,74.8
2023-03-13T04:48:34.885Z,74.3
2023-03-13T04:51:00.137Z,74.8
2023-03-13T04:53:26.801Z,73.6
2023-03-13T04:58:20.156Z,71.5
2023-03-13T05:00:45.478Z,71
2023-03-13T05:03:10.640Z,70.9
2023-03-13T05:05:37.318Z,71.2
2023-03-13T05:08:04.018Z,71
2023-03-13T05:10:30.790Z,72.2
2023-03-13T05:12:57.382Z,71.7
2023-03-13T05:15:24.089Z,71.6
2023-03-13T05:17:50.799Z,71.3
2023-03-13T05:20:17.443Z,70.6
2023-03-13T05:22:44.139Z,70.7
2023-03-13T05:25:10.826Z,71.8
2023-03-13T05:27:37.494Z,71.7
2023-03-13T05:30:04.184Z,68.7
2023-03-13T05:32:30.850Z,73.2
2023-03-13T05:34:57.552Z,84.3
2023-03-13T05:37:24.245Z,99
2023-03-13T05:42:17.593Z,100
2023-03-13T05:44:44.285Z,100
2023-03-13T05:47:09.511Z,100
2023-03-13T05:49:36.218Z,100
2023-03-13T05:52:02.894Z,100
2023-03-13T05:54:28.144Z,100
2023-03-13T05:56:53.381Z,100
2023-03-13T05:59:20.053Z,100
2023-03-13T06:01:46.733Z,100
2023-03-13T06:04:13.500Z,100
2023-03-13T06:06:40.093Z,100
2023-03-13T06:09:06.875Z,100
2023-03-13T06:11:33.471Z,100
2023-03-13T06:14:00.205Z,100
2023-03-13T06:16:26.845Z,100
2023-03-13T06:18:53.558Z,100
2023-03-13T06:21:20.203Z,100
2023-03-13T06:23:46.880Z,100
2023-03-13T06:26:13.574Z,100
2023-03-13T06:28:38.843Z,100
2023-03-13T06:31:05.480Z,100
2023-03-13T06:33:32.202Z,100
2023-03-13T06:35:58.855Z,100
2023-03-13T06:38:25.528Z,100
2023-03-13T06:40:52.384Z,100
2023-03-13T06:43:18.894Z,100
2023-03-13T06:45:45.662Z,100
2023-03-13T06:48:12.414Z,100
2023-03-13T06:50:37.565Z,100
2023-03-13T06:53:04.273Z,100
2023-03-13T06:55:30.981Z,100
2023-03-13T06:57:57.683Z,100
2023-03-13T07:00:24.385Z,100
2023-03-13T07:02:51.104Z,100
2023-03-13T07:05:17.741Z,100
2023-03-13T07:07:44.443Z,100
2023-03-13T07:10:11.130Z,100
2023-03-13T07:12:37.866Z,100
2023-03-13T07:15:04.458Z,100
2023-03-13T07:17:31.214Z,100
2023-03-13T07:19:57.760Z,100
2023-03-13T07:22:23.082Z,100
2023-03-13T07:24:49.640Z,100
2023-03-13T07:27:16.426Z,100
2023-03-13T07:29:43.201Z,100
2023-03-13T07:32:09.860Z,100
2023-03-13T07:34:36.377Z,100
2023-03-13T07:37:03.299Z,100
2023-03-13T07:39:29.832Z,100
2023-03-13T07:41:56.435Z,100
2023-03-13T07:44:23.165Z,100
2023-03-13T07:46:49.964Z,100
2023-03-13T07:49:16.572Z,100
2023-03-13T07:51:43.299Z,100
2023-03-13T07:54:10.035Z,100
2023-03-13T07:56:35.252Z,100
2023-03-13T07:59:01.993Z,100
2023-03-13T08:01:28.591Z,100
2023-03-13T08:03:55.300Z,100
2023-03-13T08:06:21.931Z,100
2023-03-13T08:08:48.612Z,100
2023-03-13T08:11:15.263Z,100
2023-03-13T08:13:41.858Z,100
2023-03-13T08:16:08.541Z,100
2023-03-13T08:18:35.254Z,100
2023-03-13T08:21:01.963Z,100
2023-03-13T08:23:28.691Z,100
2023-03-13T08:25:55.287Z,100
2023-03-13T08:28:20.523Z,100
2023-03-13T08:30:47.223Z,100
2023-03-13T08:33:13.967Z,98.6
2023-03-13T08:35:40.568Z,90
2023-03-13T08:38:07.253Z,86.1
2023-03-13T08:40:33.928Z,80.8
2023-03-13T08:43:00.611Z,79
2023-03-13T08:45:27.385Z,75.3
2023-03-13T08:47:53.990Z,73.2
2023-03-13T08:50:20.668Z,71
2023-03-13T08:52:47.382Z,69
2023-03-13T08:55:14.100Z,71
2023-03-13T08:57:40.747Z,73.3
2023-03-13T09:00:05.952Z,74.9
2023-03-13T09:02:32.623Z,74.8
2023-03-13T09:04:59.357Z,76.9
2023-03-13T09:07:25.999Z,79.5
2023-03-13T09:09:52.703Z,79.7
2023-03-13T09:12:19.376Z,80.5
2023-03-13T09:17:12.749Z,80.9
2023-03-13T09:19:39.488Z,82.6
2023-03-13T09:22:06.126Z,81.1
2023-03-13T09:24:32.809Z,82.4
2023-03-13T09:26:59.486Z,82.1
2023-03-13T09:29:26.290Z,80.7
2023-03-13T09:31:52.847Z,81.9
2023-03-13T09:34:18.109Z,80.6
2023-03-13T09:36:44.898Z,80.2
2023-03-13T09:39:11.541Z,79.5
2023-03-13T09:41:38.120Z,78.6
2023-03-13T09:44:04.998Z,78.2
2023-03-13T09:46:31.493Z,75.9
2023-03-13T09:48:58.231Z,76.9
2023-03-13T09:51:24.899Z,76.6
2023-03-13T09:53:51.528Z,77.8
2023-03-13T09:56:18.266Z,77.6
2023-03-13T09:58:44.935Z,78.1
2023-03-13T10:01:11.598Z,77.8
2023-03-13T10:03:38.286Z,77.3
2023-03-13T10:06:03.507Z,77.6
2023-03-13T10:08:30.192Z,77.7
2023-03-13T10:10:56.874Z,76.3
2023-03-13T10:13:23.551Z,75.3
2023-03-13T10:15:50.337Z,72.9
2023-03-13T10:18:16.927Z,71.5
2023-03-13T10:20:43.607Z,71.3
2023-03-13T10:23:10.337Z,69.5
2023-03-13T10:25:36.980Z,69.2
2023-03-13T10:28:03.674Z,67.9
2023-03-13T10:30:30.340Z,67.1
2023-03-13T10:32:57.020Z,65.9
2023-03-13T10:35:23.726Z,65
2023-03-13T10:40:15.616Z,64.5
2023-03-13T10:42:42.305Z,63.8
2023-03-13T10:45:08.988Z,63
2023-03-13T10:47:35.684Z,63.3
2023-03-13T10:50:02.357Z,63.5
2023-03-13T10:52:29.035Z,64.2
2023-03-13T10:54:55.727Z,62.9
2023-03-13T10:57:22.400Z,63.1
2023-03-13T10:59:49.167Z,62.7
2023-03-13T11:02:15.803Z,63
2023-03-13T11:04:42.542Z,63.7
2023-03-13T11:07:09.195Z,63.2
2023-03-13T11:09:34.528Z,62.3
2023-03-13T11:12:01.117Z,61.8
2023-03-13T11:14:27.777Z,61.1
2023-03-13T11:16:54.425Z,62.1
2023-03-13T11:19:21.121Z,61.8
2023-03-13T11:21:47.803Z,62.3
2023-03-13T11:24:14.483Z,62
2023-03-13T11:26:41.157Z,61.9
2023-03-13T11:29:07.841Z,62.7
2023-03-13T11:31:34.538Z,62.6
2023-03-13T11:34:01.211Z,61.3
2023-03-13T11:36:28.033Z,60.9
2023-03-13T11:38:54.774Z,62.5
2023-03-13T11:41:20.036Z,63.3
2023-03-13T11:43:46.663Z,61.9
2023-03-13T11:46:13.360Z,59.4
2023-03-13T11:48:40.046Z,59.4
2023-03-13T11:51:06.614Z,59.2
2023-03-13T11:53:33.315Z,59.5
2023-03-13T11:55:59.975Z,59.5
2023-03-13T11:58:26.684Z,58.6
2023-03-13T12:00:53.316Z,58.8
2023-03-13T12:03:19.983Z,57.9
2023-03-13T12:05:46.646Z,58.1
2023-03-13T12:08:13.324Z,59.1
2023-03-13T12:13:06.706Z,59.7
2023-03-13T12:15:31.938Z,58.3
2023-03-13T12:17:58.598Z,57.4
2023-03-13T12:20:25.301Z,58.7
2023-03-13T12:22:52.044Z,58.5
2023-03-13T12:25:18.668Z,58.8
2023-03-13T12:27:45.407Z,57.9
2023-03-13T12:30:12.099Z,57.9
2023-03-13T12:32:38.708Z,58.4
2023-03-13T12:35:05.455Z,58.1
2023-03-13T12:37:32.244Z,57.8
2023-03-13T12:39:58.848Z,57.9
2023-03-13T12:42:25.462Z,58.5
2023-03-13T12:44:52.235Z,56.6
2023-03-13T12:47:18.815Z,57.1
2023-03-13T12:49:44.035Z,57
2023-03-13T12:52:10.729Z,57.7
2023-03-13T12:54:37.410Z,56.7
2023-03-13T12:57:04.102Z,57.4
2023-03-13T12:59:30.789Z,58.4
2023-03-13T13:01:57.463Z,57.2
2023-03-13T13:04:24.171Z,57.1
2023-03-13T13:06:50.831Z,56.4
2023-03-13T13:09:17.521Z,56.3
2023-03-13T13:11:44.191Z,57
2023-03-13T13:14:10.880Z,57.1
2023-03-13T13:16:37.597Z,56.1
2023-03-13T13:21:30.936Z,55.2
2023-03-13T13:23:56.160Z,56.1
2023-03-13T13:26:22.853Z,55.9
2023-03-13T13:28:49.554Z,55.1
2023-03-13T13:31:16.230Z,55.2
2023-03-13T13:33:42.904Z,55.1
2023-03-13T13:36:09.576Z,53.7
2023-03-13T13:38:36.275Z,53.9
2023-03-13T13:41:02.951Z,55.5
2023-03-13T13:45:56.318Z,53.2
2023-03-13T13:48:22.997Z,52.3
2023-03-13T13:50:49.685Z,54.5
2023-03-13T13:53:16.366Z,54.6
2023-03-13T13:55:43.080Z,53.2
2023-03-13T13:58:09.737Z,54.8
2023-03-13T14:00:36.416Z,54.4
2023-03-13T14:03:01.637Z,52
2023-03-13T14:05:28.327Z,52.2
2023-03-13T14:07:55.000Z,54.5
2023-03-13T14:10:21.690Z,52.5
2023-03-13T14:12:48.369Z,54.9
2023-03-13T14:15:15.068Z,51.9
2023-03-13T14:17:41.742Z,53.4
2023-03-13T14:20:08.441Z,52.3
2023-03-13T14:22:35.121Z,52
2023-03-13T14:25:01.793Z,53.8
2023-03-13T14:27:28.514Z,53.1
2023-03-13T14:29:55.167Z,50.7
2023-03-13T14:32:21.916Z,52.7
2023-03-13T14:34:47.200Z,52.2
2023-03-13T14:37:13.761Z,54.4
2023-03-13T14:39:40.443Z,52.8
2023-03-13T14:42:07.126Z,51.8
2023-03-13T14:44:33.814Z,52.9
2023-03-13T14:47:00.497Z,52.5
2023-03-13T14:49:27.168Z,52.2
2023-03-13T14:51:53.870Z,51.9
2023-03-13T14:54:20.564Z,50.8
2023-03-13T14:56:47.221Z,52.1
2023-03-13T14:59:13.910Z,54.2
2023-03-13T15:01:39.172Z,54.4
2023-03-13T15:04:05.839Z,53.4
2023-03-13T15:06:32.508Z,52.5
2023-03-13T15:08:59.194Z,54.3
2023-03-13T15:11:25.885Z,55.7
2023-03-13T15:13:52.561Z,54.1
2023-03-13T15:16:19.254Z,55.9
2023-03-13T15:18:45.941Z,54.7
2023-03-13T15:23:39.310Z,54.5
2023-03-13T15:26:05.983Z,55.6
2023-03-13T15:28:32.668Z,56.3
2023-03-13T15:30:59.355Z,56.5
2023-03-13T15:33:24.593Z,56.2
2023-03-13T15:35:51.259Z,56.6
2023-03-13T15:38:17.953Z,56
2023-03-13T15:40:44.652Z,56.7
2023-03-13T15:43:11.316Z,55.9
2023-03-13T15:45:37.999Z,56.3
2023-03-13T15:48:04.702Z,56
2023-03-13T15:50:31.367Z,56.3
2023-03-13T15:52:58.056Z,56.4
2023-03-13T15:55:24.739Z,55.7
2023-03-13T15:57:51.447Z,57.2
2023-03-13T16:00:18.138Z,58.1
2023-03-13T16:02:44.785Z,59.9
2023-03-13T16:05:10.008Z,60
2023-03-13T16:07:36.715Z,59.9
2023-03-13T16:10:03.405Z,58.8
2023-03-13T16:12:30.071Z,62.5
2023-03-13T16:14:56.751Z,60.9
2023-03-13T16:17:23.441Z,60.3
2023-03-13T16:19:50.223Z,59.3
2023-03-13T16:22:16.802Z,59
2023-03-13T16:24:43.493Z,58.2
2023-03-13T16:27:10.166Z,58
2023-03-13T16:29:36.879Z,58
2023-03-13T16:32:03.547Z,58.1
2023-03-13T16:34:30.304Z,58.7
2023-03-13T16:36:55.447Z,58.8
2023-03-13T16:39:22.124Z,58.7
2023-03-13T16:41:48.817Z,59.5
2023-03-13T16:44:15.504Z,60.1
2023-03-13T16:46:42.191Z,60.2
2023-03-13T16:49:08.872Z,60.7
2023-03-13T16:51:35.559Z,61
2023-03-13T16:54:02.234Z,61.3
2023-03-13T16:56:29.119Z,61.5
2023-03-13T16:58:55.792Z,61.8
2023-03-13T17:01:22.467Z,62
2023-03-13T17:03:49.139Z,62.6
2023-03-13T17:06:15.659Z,63.1
2023-03-13T17:08:40.897Z,63.2
2023-03-13T17:13:34.459Z,64.1
2023-03-13T17:16:01.171Z,65.3
2023-03-13T17:18:27.631Z,68
2023-03-13T17:20:54.526Z,70.1
2023-03-13T17:23:21.212Z,71.9
2023-03-13T17:25:47.730Z,72.6
2023-03-13T17:28:14.540Z,74.3
2023-03-13T17:30:41.222Z,76.3
2023-03-13T17:33:07.956Z,78.1
2023-03-13T17:35:34.623Z,80.8
2023-03-13T17:38:01.347Z,81.8
2023-03-13T17:40:26.488Z,82.6
2023-03-13T17:42:53.090Z,84.6
2023-03-13T17:45:19.855Z,90.5
2023-03-13T17:47:46.526Z,94.3
2023-03-13T17:50:13.242Z,100
2023-03-13T17:52:39.928Z,100
2023-03-13T17:55:06.608Z,100
2023-03-13T17:57:33.275Z,100
2023-03-13T18:02:26.714Z,100
2023-03-13T18:04:53.295Z,100
2023-03-13T18:07:20.019Z,100
2023-03-13T18:09:46.730Z,100
2023-03-13T18:12:11.958Z,100
2023-03-13T18:14:38.569Z,100
2023-03-13T18:17:05.248Z,100
2023-03-13T18:19:31.840Z,100
2023-03-13T18:21:58.698Z,100
2023-03-13T18:26:51.862Z,100
2023-03-13T18:29:18.669Z,100
2023-03-13T18:31:45.437Z,100
2023-03-13T18:34:11.938Z,100
2023-03-13T18:39:05.450Z,100
2023-03-13T18:41:30.592Z,100
2023-03-13T18:43:55.941Z,100
2023-03-13T18:46:22.691Z,100
2023-03-13T18:48:49.342Z,100
2023-03-13T18:51:15.989Z,100
2023-03-13T18:53:42.670Z,100
2023-03-13T18:56:09.279Z,99.8
2023-03-13T18:58:35.931Z,99.7
2023-03-13T19:01:02.793Z,100
2023-03-13T19:03:29.272Z,100
2023-03-13T19:05:56.140Z,100
2023-03-13T19:08:22.785Z,100
2023-03-13T19:13:14.720Z,81.4
2023-03-13T19:15:39.937Z,72.6
2023-03-13T19:18:06.458Z,66.6
2023-03-13T19:20:33.316Z,62
2023-03-13T19:23:00.036Z,61
2023-03-13T19:27:53.454Z,56.4
2023-03-13T19:30:18.626Z,54.9
2023-03-13T19:32:43.874Z,53.2
2023-03-13T19:35:10.508Z,52.2
2023-03-13T19:37:37.161Z,51.5
2023-03-13T19:40:03.902Z,51.1
2023-03-13T19:42:30.588Z,50.7
2023-03-13T19:44:57.270Z,50.5
2023-03-13T19:47:23.972Z,50
2023-03-13T19:49:50.610Z,49.6
2023-03-13T19:52:17.328Z,49.3
2023-03-13T19:54:44.051Z,48.8
2023-03-13T19:57:09.264Z,48.2
2023-03-13T19:59:34.298Z,48.1
2023-03-13T20:02:01.162Z,47.6
2023-03-13T20:04:27.677Z,47.1
2023-03-13T20:06:54.588Z,46.9
2023-03-13T20:11:47.938Z,46.6
2023-03-13T20:16:41.099Z,46.1
2023-03-13T20:21:34.667Z,46
2023-03-13T20:26:27.995Z,45.8
2023-03-13T20:31:21.346Z,45.6
2023-03-13T20:33:47.934Z,45.6
2023-03-13T20:36:13.330Z,46.2
2023-03-13T20:38:38.522Z,52
2023-03-13T20:41:05.276Z,57.8
2023-03-13T20:43:31.826Z,66.7
2023-03-13T20:45:58.465Z,67.4
2023-03-13T20:48:25.102Z,69.8
2023-03-13T20:50:51.948Z,68.7
2023-03-13T20:53:18.560Z,66.4
2023-03-13T20:55:45.159Z,64.8
2023-03-13T21:00:38.613Z,60.8
2023-03-13T21:05:32.045Z,59.4
2023-03-13T21:07:58.715Z,57.5
2023-03-13T21:10:25.409Z,57
2023-03-13T21:15:18.788Z,56.5
2023-03-13T21:17:43.921Z,56.6
2023-03-13T21:20:10.614Z,57.4
2023-03-13T21:22:37.372Z,57
2023-03-13T21:25:03.994Z,55.8
2023-03-13T21:27:30.745Z,55
2023-03-13T21:29:57.395Z,55.1
2023-03-13T21:37:17.356Z,54.6
2023-03-13T21:44:37.519Z,52.4
2023-03-13T21:47:04.160Z,52.2
2023-03-13T21:49:29.435Z,52.1
2023-03-13T21:51:56.065Z,51.9
2023-03-13T22:01:42.823Z,51.6
2023-03-13T22:04:09.525Z,51.4
2023-03-13T22:06:36.156Z,51.5
2023-03-13T22:09:02.816Z,51.6
2023-03-13T22:11:29.446Z,51.6
2023-03-13T22:13:56.215Z,51.6
2023-03-13T22:16:23.008Z,51.7
2023-03-13T22:18:49.510Z,51.9
2023-03-13T22:21:16.216Z,51.8
2023-03-13T22:28:36.228Z,51.4
2023-03-13T22:31:03.120Z,51.5
2023-03-13T22:33:28.225Z,51.7
2023-03-13T22:35:54.952Z,51.9
2023-03-13T22:38:21.709Z,52
2023-03-13T22:40:48.359Z,51.7
2023-03-13T22:43:14.876Z,51.5
2023-03-13T22:45:41.704Z,51.4
2023-03-13T22:48:08.391Z,51.3
2023-03-13T22:50:35.014Z,51.4
2023-03-13T22:57:54.984Z,51.3
2023-03-13T23:00:21.819Z,51.2
2023-03-13T23:02:48.348Z,51.3
2023-03-13T23:05:13.785Z,51.2
2023-03-13T23:07:40.530Z,51.3
2023-03-13T23:10:07.051Z,51.3
2023-03-13T23:12:32.345Z,51.3
2023-03-13T23:14:58.863Z,51.3
2023-03-13T23:17:25.663Z,51.2
2023-03-13T23:19:52.379Z,51
2023-03-13T23:22:19.051Z,51
2023-03-13T23:24:45.711Z,50.9
2023-03-13T23:27:12.444Z,50.8
2023-03-13T23:29:39.049Z,50.7
2023-03-13T23:32:05.807Z,50.6
2023-03-13T23:34:32.551Z,50.7
2023-03-13T23:36:59.167Z,50.7
2023-03-13T23:39:25.888Z,51
2023-03-13T23:41:52.438Z,51.4
2023-03-13T23:44:17.755Z,51.7
2023-03-13T23:46:42.967Z,52.7
2023-03-13T23:49:09.687Z,53.1
2023-03-13T23:51:34.877Z,53.2
2023-03-13T23:54:01.524Z,53.3
2023-03-13T23:56:28.275Z,53.4
